createdAt,value
2022-08-19T00:01:55.151Z,19.08
2022-08-19T00:04:41.393Z,19.01
2022-08-19T00:07:26.506Z,18.98
2022-08-19T00:10:15.532Z,19.01
2022-08-19T00:13:01.103Z,19.01
2022-08-19T00:15:45.917Z,19.01
2022-08-19T00:18:31.846Z,18.98
2022-08-19T00:21:17.162Z,18.95
2022-08-19T00:24:02.717Z,18.98
2022-08-19T00:26:48.064Z,18.92
2022-08-19T00:29:33.111Z,18.85
2022-08-19T00:32:18.591Z,18.85
2022-08-19T00:35:05.558Z,18.79
2022-08-19T00:37:51.209Z,18.66
2022-08-19T00:40:36.201Z,18.70
2022-08-19T00:43:25.220Z,18.69
2022-08-19T00:46:10.541Z,18.64
2022-08-19T00:48:57.569Z,18.64
2022-08-19T00:51:45.548Z,18.61
2022-08-19T00:54:31.543Z,18.62
2022-08-19T00:57:21.378Z,18.57
2022-08-19T01:00:11.024Z,18.57
2022-08-19T01:02:56.887Z,18.53
2022-08-19T01:05:44.470Z,18.51
2022-08-19T01:08:29.598Z,18.54
2022-08-19T01:11:15.239Z,18.48
2022-08-19T01:14:00.650Z,18.46
2022-08-19T01:16:47.548Z,18.48
2022-08-19T01:19:44.148Z,18.53
2022-08-19T01:22:38.534Z,18.59
2022-08-19T01:25:30.053Z,18.64
2022-08-19T01:28:21.828Z,18.62
2022-08-19T01:31:27.019Z,18.59
2022-08-19T01:34:12.708Z,18.55
2022-08-19T01:36:57.578Z,18.53
2022-08-19T01:39:43.727Z,18.49
2022-08-19T01:42:29.931Z,18.41
2022-08-19T01:45:15.809Z,18.30
2022-08-19T01:48:02.533Z,18.28
2022-08-19T01:50:47.753Z,18.22
2022-08-19T01:53:33.955Z,18.13
2022-08-19T01:56:20.000Z,18.06
2022-08-19T01:59:11.324Z,17.99
2022-08-19T02:01:56.464Z,18.01
2022-08-19T02:04:41.716Z,18.02
2022-08-19T02:07:27.054Z,18.02
2022-08-19T02:10:16.562Z,17.79
2022-08-19T02:13:01.800Z,17.90
2022-08-19T02:15:46.805Z,17.92
2022-08-19T02:18:31.869Z,17.88
2022-08-19T02:21:18.839Z,17.84
2022-08-19T02:24:04.299Z,17.85
2022-08-19T02:26:49.864Z,17.86
2022-08-19T02:29:34.713Z,17.79
2022-08-19T02:32:20.761Z,17.76
2022-08-19T02:35:12.257Z,17.75
2022-08-19T02:37:58.282Z,17.72
2022-08-19T02:40:52.636Z,17.69
2022-08-19T02:43:38.286Z,17.68
2022-08-19T02:46:26.835Z,17.64
2022-08-19T02:49:11.889Z,17.64
2022-08-19T02:51:57.161Z,17.60
2022-08-19T02:54:42.074Z,17.59
2022-08-19T02:57:27.680Z,17.60
2022-08-19T03:00:13.383Z,17.61
2022-08-19T03:02:58.661Z,17.65
2022-08-19T03:05:47.902Z,17.62
2022-08-19T03:08:43.696Z,17.54
2022-08-19T03:11:32.280Z,17.50
2022-08-19T03:14:17.471Z,17.55
2022-08-19T03:17:04.097Z,17.51
2022-08-19T03:19:49.134Z,17.50
2022-08-19T03:22:34.011Z,17.43
2022-08-19T03:25:18.799Z,17.43
2022-08-19T03:28:03.969Z,17.45
2022-08-19T03:31:01.407Z,17.45
2022-08-19T03:33:46.779Z,17.44
2022-08-19T03:36:36.429Z,17.34
2022-08-19T03:39:22.960Z,17.32
2022-08-19T03:42:38.690Z,17.33
2022-08-19T03:45:14.456Z,17.37
2022-08-19T03:47:59.831Z,17.34
2022-08-19T03:50:45.554Z,17.38
2022-08-19T03:53:32.562Z,17.36
2022-08-19T03:56:18.914Z,17.31
2022-08-19T03:59:06.052Z,17.27
2022-08-19T04:01:50.925Z,17.27
2022-08-19T04:04:40.659Z,17.23
2022-08-19T04:07:25.921Z,17.18
2022-08-19T04:10:11.002Z,17.19
2022-08-19T04:12:56.852Z,17.14
2022-08-19T04:15:44.361Z,17.12
2022-08-19T04:18:32.522Z,17.10
2022-08-19T04:21:23.748Z,17.07
2022-08-19T04:24:09.982Z,17.04
2022-08-19T04:26:55.412Z,17.01
2022-08-19T04:29:40.216Z,16.96
2022-08-19T04:32:25.035Z,16.94
2022-08-19T04:35:16.747Z,16.91
2022-08-19T04:38:04.443Z,16.89
2022-08-19T04:40:51.379Z,16.85
2022-08-19T04:43:38.491Z,16.88
2022-08-19T04:46:39.632Z,16.90
2022-08-19T04:49:25.800Z,16.93
2022-08-19T04:52:11.204Z,16.86
2022-08-19T04:54:56.576Z,16.84
2022-08-19T04:57:41.532Z,16.83
2022-08-19T05:00:26.951Z,16.83
2022-08-19T05:03:12.381Z,16.88
2022-08-19T05:05:57.249Z,16.91
2022-08-19T05:08:43.424Z,16.97
2022-08-19T05:11:31.645Z,16.94
2022-08-19T05:14:16.581Z,16.96
2022-08-19T05:17:25.646Z,16.97
2022-08-19T05:20:08.113Z,17.00
2022-08-19T05:22:53.588Z,17.00
2022-08-19T05:25:40.711Z,17.02
2022-08-19T05:28:26.608Z,17.10
2022-08-19T05:31:11.654Z,17.18
2022-08-19T05:33:56.576Z,17.31
2022-08-19T05:36:44.452Z,17.39
2022-08-19T05:39:32.715Z,17.42
2022-08-19T05:42:17.776Z,17.50
2022-08-19T05:45:03.561Z,17.46
2022-08-19T05:47:48.945Z,17.38
2022-08-19T05:50:34.116Z,17.43
2022-08-19T05:53:20.802Z,17.45
2022-08-19T05:56:11.778Z,17.35
2022-08-19T05:58:58.382Z,17.44
2022-08-19T06:01:49.007Z,17.49
2022-08-19T06:04:34.772Z,17.54
2022-08-19T06:07:20.289Z,17.57
2022-08-19T06:10:08.582Z,17.63
2022-08-19T06:12:54.939Z,17.65
2022-08-19T06:15:40.204Z,17.69
2022-08-19T06:18:25.485Z,17.67
2022-08-19T06:21:10.572Z,17.74
2022-08-19T06:23:56.657Z,17.82
2022-08-19T06:26:43.858Z,17.85
2022-08-19T06:29:29.431Z,17.91
2022-08-19T06:32:17.016Z,17.94
2022-08-19T06:35:02.257Z,17.89
2022-08-19T06:37:47.339Z,17.82
2022-08-19T06:40:32.617Z,17.83
2022-08-19T06:43:18.572Z,17.96
2022-08-19T06:46:04.562Z,18.08
2022-08-19T06:48:51.781Z,18.26
2022-08-19T06:51:37.027Z,18.29
2022-08-19T06:54:30.621Z,18.50
2022-08-19T06:57:16.016Z,18.62
2022-08-19T07:00:01.725Z,18.72
2022-08-19T07:02:52.172Z,18.95
2022-08-19T07:05:43.140Z,19.00
2022-08-19T07:08:31.531Z,19.18
2022-08-19T07:11:19.027Z,19.42
2022-08-19T07:14:04.712Z,19.61
2022-08-19T07:16:51.644Z,19.80
2022-08-19T07:19:38.670Z,20.00
2022-08-19T07:22:24.481Z,20.28
2022-08-19T07:25:10.552Z,20.35
2022-08-19T07:27:55.848Z,20.71
2022-08-19T07:30:41.279Z,20.85
2022-08-19T07:33:29.265Z,21.28
2022-08-19T07:36:17.552Z,21.61
2022-08-19T07:39:11.867Z,22.10
2022-08-19T07:41:59.558Z,22.40
2022-08-19T07:44:49.941Z,22.80
2022-08-19T07:47:48.993Z,22.82
2022-08-19T07:50:36.007Z,23.49
2022-08-19T07:53:22.473Z,23.90
2022-08-19T07:56:07.635Z,24.77
2022-08-19T07:58:53.636Z,25.46
2022-08-19T08:01:41.772Z,25.62
2022-08-19T08:04:28.678Z,26.22
2022-08-19T08:07:13.669Z,26.25
2022-08-19T08:09:59.080Z,26.55
2022-08-19T08:13:08.802Z,27.18
2022-08-19T08:15:54.724Z,27.49
2022-08-19T08:18:41.854Z,27.87
2022-08-19T08:21:27.387Z,27.64
2022-08-19T08:24:12.757Z,26.81
2022-08-19T08:27:00.122Z,27.26
2022-08-19T08:29:45.381Z,27.85
2022-08-19T08:32:30.805Z,28.24
2022-08-19T08:35:18.554Z,28.11
2022-08-19T08:38:04.320Z,28.52
2022-08-19T08:40:54.336Z,28.75
2022-08-19T08:43:41.854Z,28.34
2022-08-19T08:46:36.542Z,28.22
2022-08-19T08:49:32.073Z,28.32
2022-08-19T08:52:33.356Z,28.31
2022-08-19T08:55:23.607Z,28.46
2022-08-19T08:58:32.550Z,28.23
2022-08-19T09:01:17.865Z,28.63
2022-08-19T09:04:07.566Z,28.32
2022-08-19T09:07:35.420Z,28.58
2022-08-19T09:10:44.207Z,28.66
2022-08-19T09:13:39.762Z,28.49
2022-08-19T09:16:28.596Z,28.29
2022-08-19T09:19:14.990Z,28.06
2022-08-19T09:22:07.785Z,28.60
2022-08-19T09:24:56.772Z,28.88
2022-08-19T09:27:43.694Z,28.41
2022-08-19T09:30:35.738Z,28.18
2022-08-19T09:33:20.944Z,28.52
2022-08-19T09:36:12.751Z,28.89
2022-08-19T09:39:16.277Z,28.41
2022-08-19T09:42:01.706Z,28.81
2022-08-19T09:44:47.077Z,28.68
2022-08-19T09:47:32.444Z,28.15
2022-08-19T09:50:17.836Z,27.89
2022-08-19T09:53:03.184Z,27.90
2022-08-19T09:55:48.012Z,27.56
2022-08-19T09:58:34.650Z,26.96
2022-08-19T10:01:26.387Z,27.02
2022-08-19T10:04:20.220Z,26.95
2022-08-19T10:07:07.171Z,26.38
2022-08-19T10:09:52.227Z,26.38
2022-08-19T10:12:37.653Z,26.17
2022-08-19T10:15:29.237Z,26.16
2022-08-19T10:18:15.976Z,25.82
2022-08-19T10:21:14.727Z,25.98
2022-08-19T10:24:03.666Z,26.00
2022-08-19T10:26:48.544Z,26.93
2022-08-19T10:29:46.371Z,27.62
2022-08-19T10:32:34.495Z,27.76
2022-08-19T10:35:21.690Z,27.72
2022-08-19T10:38:07.203Z,27.63
2022-08-19T10:40:55.834Z,27.21
2022-08-19T10:43:42.954Z,27.07
2022-08-19T10:46:29.045Z,26.75
2022-08-19T10:49:14.637Z,26.89
2022-08-19T10:51:59.826Z,26.52
2022-08-19T10:54:44.577Z,26.12
2022-08-19T10:57:52.407Z,26.24
2022-08-19T11:00:38.063Z,26.49
2022-08-19T11:03:24.570Z,26.26
2022-08-19T11:06:09.932Z,26.28
2022-08-19T11:08:55.491Z,26.55
2022-08-19T11:11:40.860Z,26.58
2022-08-19T11:14:25.913Z,26.60
2022-08-19T11:17:12.243Z,26.49
2022-08-19T11:19:57.707Z,26.88
2022-08-19T11:22:43.287Z,27.11
2022-08-19T11:25:28.317Z,27.12
2022-08-19T11:28:13.870Z,26.67
2022-08-19T11:30:59.503Z,26.77
2022-08-19T11:33:47.639Z,26.39
2022-08-19T11:36:33.345Z,26.69
2022-08-19T11:39:20.197Z,27.02
2022-08-19T11:42:07.089Z,27.01
2022-08-19T11:44:52.844Z,26.81
2022-08-19T11:47:37.831Z,26.97
2022-08-19T11:50:24.396Z,26.78
2022-08-19T11:53:10.047Z,26.83
2022-08-19T11:55:56.374Z,27.04
2022-08-19T11:58:41.480Z,26.90
2022-08-19T12:01:27.069Z,26.61
2022-08-19T12:04:12.461Z,26.57
2022-08-19T12:06:57.841Z,26.84
2022-08-19T12:09:43.157Z,27.84
2022-08-19T12:12:28.262Z,28.91
2022-08-19T12:15:13.767Z,29.47
2022-08-19T12:17:59.111Z,29.23
2022-08-19T12:20:44.545Z,30.08
2022-08-19T12:23:29.643Z,30.60
2022-08-19T12:26:16.165Z,32.06
2022-08-19T12:29:01.448Z,32.82
2022-08-19T12:31:46.351Z,33.70
2022-08-19T12:34:33.050Z,33.96
2022-08-19T12:37:18.605Z,34.22
2022-08-19T12:40:04.770Z,34.08
2022-08-19T12:42:49.759Z,33.60
2022-08-19T12:45:35.172Z,34.28
2022-08-19T12:48:34.414Z,35.73
2022-08-19T12:51:19.972Z,34.90
2022-08-19T12:54:04.919Z,35.45
2022-08-19T12:56:50.390Z,36.17
2022-08-19T12:59:36.737Z,34.84
2022-08-19T13:02:22.220Z,34.85
2022-08-19T13:05:09.445Z,35.29
2022-08-19T13:07:57.020Z,34.78
2022-08-19T13:10:42.418Z,36.22
2022-08-19T13:13:27.761Z,36.34
2022-08-19T13:16:13.748Z,36.19
2022-08-19T13:18:58.995Z,36.28
2022-08-19T13:21:44.206Z,35.36
2022-08-19T13:24:32.301Z,34.56
2022-08-19T13:27:19.326Z,32.85
2022-08-19T13:30:06.197Z,32.47
2022-08-19T13:32:51.447Z,32.26
2022-08-19T13:35:36.484Z,31.84
2022-08-19T13:38:22.810Z,31.34
2022-08-19T13:41:11.151Z,30.77
2022-08-19T13:43:58.338Z,30.36
2022-08-19T13:46:43.226Z,30.23
2022-08-19T13:49:29.505Z,29.82
2022-08-19T13:52:14.940Z,29.66
2022-08-19T13:55:00.310Z,29.82
2022-08-19T13:57:45.845Z,29.78
2022-08-19T14:00:35.511Z,29.88
2022-08-19T14:03:20.724Z,29.65
2022-08-19T14:06:06.330Z,29.36
2022-08-19T14:08:51.682Z,29.21
2022-08-19T14:11:37.054Z,29.35
2022-08-19T14:14:22.637Z,29.46
2022-08-19T14:17:08.655Z,29.00
2022-08-19T14:20:03.399Z,29.21
2022-08-19T14:22:56.401Z,29.40
2022-08-19T14:25:42.009Z,29.12
2022-08-19T14:28:28.236Z,28.83
2022-08-19T14:31:15.514Z,29.10
2022-08-19T14:34:00.809Z,29.30
2022-08-19T14:36:45.617Z,29.16
2022-08-19T14:39:30.938Z,29.01
2022-08-19T14:42:16.410Z,29.03
2022-08-19T14:45:02.554Z,29.02
2022-08-19T14:47:47.611Z,28.91
2022-08-19T14:50:33.900Z,28.86
2022-08-19T14:53:19.479Z,28.81
2022-08-19T14:56:12.665Z,28.65
2022-08-19T14:58:58.362Z,28.42
2022-08-19T15:01:43.997Z,28.18
2022-08-19T15:04:33.324Z,27.96
2022-08-19T15:07:19.051Z,27.94
2022-08-19T15:10:07.293Z,27.65
2022-08-19T15:12:52.379Z,27.71
2022-08-19T15:15:37.645Z,27.69
2022-08-19T15:18:23.492Z,28.15
2022-08-19T15:21:08.696Z,28.46
2022-08-19T15:23:56.618Z,27.95
2022-08-19T15:26:42.072Z,27.83
2022-08-19T15:29:27.657Z,27.89
2022-08-19T15:32:12.941Z,27.76
2022-08-19T15:34:58.356Z,27.64
2022-08-19T15:37:43.492Z,27.82
2022-08-19T15:40:29.103Z,27.86
2022-08-19T15:43:15.412Z,27.63
2022-08-19T15:46:00.624Z,27.63
2022-08-19T15:48:45.786Z,27.53
2022-08-19T15:51:44.065Z,27.63
2022-08-19T15:54:29.415Z,27.48
2022-08-19T15:57:14.839Z,27.49
2022-08-19T16:00:02.370Z,27.49
2022-08-19T16:02:48.368Z,27.52
2022-08-19T16:05:38.676Z,27.12
2022-08-19T16:08:23.578Z,27.31
2022-08-19T16:11:10.458Z,27.31
2022-08-19T16:13:56.903Z,27.37
2022-08-19T16:16:45.541Z,27.29
2022-08-19T16:19:30.855Z,27.33
2022-08-19T16:22:16.536Z,27.28
2022-08-19T16:25:01.744Z,27.24
2022-08-19T16:28:06.537Z,27.23
2022-08-19T16:30:52.371Z,27.17
2022-08-19T16:33:37.868Z,27.13
2022-08-19T16:36:23.252Z,26.92
2022-08-19T16:39:10.380Z,26.83
2022-08-19T16:41:55.616Z,26.80
2022-08-19T16:44:43.235Z,26.60
2022-08-19T16:47:28.384Z,26.50
2022-08-19T16:50:13.703Z,26.56
2022-08-19T16:52:58.771Z,26.37
2022-08-19T16:55:45.898Z,26.30
2022-08-19T16:58:31.891Z,26.05
2022-08-19T17:01:18.286Z,26.10
2022-08-19T17:04:03.897Z,26.23
2022-08-19T17:06:49.039Z,26.25
2022-08-19T17:09:33.973Z,26.23
2022-08-19T17:12:19.328Z,26.26
2022-08-19T17:15:05.247Z,26.24
2022-08-19T17:17:50.562Z,26.24
2022-08-19T17:20:36.677Z,26.12
2022-08-19T17:23:22.078Z,25.86
2022-08-19T17:26:28.289Z,25.96
2022-08-19T17:29:13.789Z,25.88
2022-08-19T17:31:59.796Z,25.93
2022-08-19T17:34:44.629Z,25.83
2022-08-19T17:37:30.045Z,25.88
2022-08-19T17:40:15.890Z,25.93
2022-08-19T17:43:11.013Z,25.89
2022-08-19T17:45:56.102Z,25.79
2022-08-19T17:48:41.118Z,25.63
2022-08-19T17:51:32.532Z,25.65
2022-08-19T17:54:19.428Z,25.60
2022-08-19T17:57:04.656Z,25.60
2022-08-19T17:59:50.224Z,25.43
2022-08-19T18:02:46.128Z,25.52
2022-08-19T18:05:40.829Z,25.54
2022-08-19T18:08:25.843Z,25.41
2022-08-19T18:11:11.997Z,25.49
2022-08-19T18:13:57.439Z,25.50
2022-08-19T18:16:42.359Z,25.53
2022-08-19T18:19:30.149Z,25.48
2022-08-19T18:22:30.312Z,25.42
2022-08-19T18:25:15.542Z,25.34
2022-08-19T18:28:01.412Z,25.33
2022-08-19T18:30:46.585Z,25.22
2022-08-19T18:33:32.160Z,25.17
2022-08-19T18:36:27.891Z,25.19
2022-08-19T18:39:21.968Z,25.18
2022-08-19T18:42:13.993Z,25.04
2022-08-19T18:45:00.178Z,25.03
2022-08-19T18:47:45.396Z,25.03
2022-08-19T18:50:30.784Z,25.03
2022-08-19T18:53:16.329Z,25.03
2022-08-19T18:56:02.084Z,24.98
2022-08-19T18:58:47.178Z,24.95
2022-08-19T19:01:36.368Z,24.88
2022-08-19T19:04:24.806Z,24.90
2022-08-19T19:07:09.884Z,24.82
2022-08-19T19:09:55.884Z,24.74
2022-08-19T19:12:43.733Z,24.71
2022-08-19T19:15:28.895Z,24.69
2022-08-19T19:18:13.928Z,24.63
2022-08-19T19:20:58.901Z,24.66
2022-08-19T19:23:44.229Z,24.56
2022-08-19T19:26:29.588Z,24.48
2022-08-19T19:29:16.326Z,24.49
2022-08-19T19:32:01.931Z,24.46
2022-08-19T19:34:47.621Z,24.38
2022-08-19T19:37:33.518Z,24.31
2022-08-19T19:40:21.527Z,24.26
2022-08-19T19:43:06.799Z,24.25
2022-08-19T19:45:51.743Z,24.16
2022-08-19T19:48:36.613Z,24.04
2022-08-19T19:51:22.228Z,24.00
2022-08-19T19:54:10.222Z,23.88
2022-08-19T19:56:55.205Z,23.85
2022-08-19T19:59:40.105Z,23.77
2022-08-19T20:02:31.712Z,23.63
2022-08-19T20:05:17.620Z,23.54
2022-08-19T20:08:02.897Z,23.23
2022-08-19T20:10:48.146Z,23.30
2022-08-19T20:13:34.037Z,23.25
2022-08-19T20:16:18.871Z,22.94
2022-08-19T20:19:04.458Z,22.99
2022-08-19T20:21:51.480Z,23.01
2022-08-19T20:24:36.602Z,23.02
2022-08-19T20:27:22.794Z,23.05
2022-08-19T20:30:19.466Z,23.10
2022-08-19T20:33:05.123Z,23.04
2022-08-19T20:35:50.638Z,23.14
2022-08-19T20:38:35.665Z,23.15
2022-08-19T20:41:20.924Z,23.07
2022-08-19T20:44:06.418Z,23.03
2022-08-19T20:46:55.421Z,23.06
2022-08-19T20:49:41.585Z,23.20
2022-08-19T20:52:26.883Z,23.28
2022-08-19T20:55:14.258Z,23.26
2022-08-19T20:58:02.267Z,23.24
2022-08-19T21:00:48.963Z,23.20
2022-08-19T21:03:36.506Z,23.17
2022-08-19T21:06:28.294Z,23.05
2022-08-19T21:09:15.096Z,23.14
2022-08-19T21:12:04.134Z,23.13
2022-08-19T21:14:49.290Z,23.12
2022-08-19T21:17:34.596Z,23.13
2022-08-19T21:20:20.072Z,23.19
2022-08-19T21:23:14.978Z,23.20
2022-08-19T21:26:00.552Z,23.14
2022-08-19T21:28:45.366Z,23.21
2022-08-19T21:31:30.813Z,23.21
2022-08-19T21:34:16.600Z,23.23
2022-08-19T21:37:01.600Z,23.16
2022-08-19T21:39:46.526Z,23.12
2022-08-19T21:42:34.851Z,23.09
2022-08-19T21:45:20.421Z,23.07
2022-08-19T21:48:05.889Z,23.07
2022-08-19T21:50:51.272Z,23.12
2022-08-19T21:53:36.217Z,23.15
2022-08-19T21:56:21.448Z,23.02
2022-08-19T21:59:06.504Z,22.96
2022-08-19T22:02:01.750Z,22.96
2022-08-19T22:04:56.703Z,22.95
2022-08-19T22:07:41.538Z,22.90
2022-08-19T22:10:29.842Z,22.83
2022-08-19T22:13:14.884Z,22.83
2022-08-19T22:16:00.114Z,22.81
2022-08-19T22:18:46.191Z,22.87
2022-08-19T22:21:40.920Z,22.87
2022-08-19T22:24:26.392Z,22.89
2022-08-19T22:27:11.742Z,22.92
2022-08-19T22:29:57.043Z,22.85
2022-08-19T22:32:56.173Z,22.83
2022-08-19T22:35:42.519Z,22.87
2022-08-19T22:38:28.200Z,22.83
2022-08-19T22:41:13.575Z,22.85
2022-08-19T22:43:59.522Z,22.85
2022-08-19T22:46:44.794Z,22.89
2022-08-19T22:49:30.249Z,22.89
2022-08-19T22:52:16.533Z,22.89
2022-08-19T22:55:05.202Z,22.74
2022-08-19T22:57:50.634Z,22.81
2022-08-19T23:00:35.525Z,22.79
2022-08-19T23:03:20.864Z,22.79
2022-08-19T23:06:06.876Z,22.79
2022-08-19T23:08:52.200Z,22.79
2022-08-19T23:11:41.529Z,22.74
2022-08-19T23:14:27.932Z,22.67
2022-08-19T23:17:12.960Z,22.64
2022-08-19T23:19:58.006Z,22.59
2022-08-19T23:22:45.955Z,22.62
2022-08-19T23:25:33.568Z,22.56
2022-08-19T23:28:19.781Z,22.48
2022-08-19T23:31:05.491Z,22.53
2022-08-19T23:33:51.382Z,22.49
2022-08-19T23:36:36.968Z,22.51
2022-08-19T23:39:21.897Z,22.50
2022-08-19T23:42:11.281Z,22.42
2022-08-19T23:45:02.302Z,22.37
2022-08-19T23:47:48.997Z,22.28
2022-08-19T23:50:34.859Z,22.23
2022-08-19T23:53:20.394Z,22.13
2022-08-19T23:56:06.543Z,22.10
2022-08-19T23:58:51.924Z,22.13
